Navios*hios — SXJH — position and weather

sailwx.info

Track history (hours):
 
Tides and Currents Weather Stations Pressure Air Temp Water Temp Dewpoint Dewpoint Depression Visibility Wind Speed Wind Dir Waves Ship Positions

Navios*hios

Last reported at 2016-Aug-29 01:28 UTC. Time now 2016-Aug-29 05:29 UTC.
Position N 51°30' E 000°03'.

Length 120 m; draft 10 m.

Type: Cargo ship. MMSI: 240149000.

Date/timePositionNaut miles runAvg speedWind from/ knotsBaromVisibWave heightAir tempDewpointWater temp
2016-Aug-29 01:28N 51°30' E 000°03'0 0.0
2016-Aug-29 00:28N 51°30' E 000°03'0 0.0
2016-Aug-28 23:28N 51°30' E 000°03'0 0.0
2016-Aug-28 22:28N 51°30' E 000°03'0 0.0
2016-Aug-28 21:16N 51°30' E 000°03'0 0.0
2016-Aug-28 20:28N 51°30' E 000°03'0 0.0
2016-Aug-28 19:04N 51°30' E 000°03'0 0.0
2016-Aug-28 18:28N 51°30' E 000°03'0 0.0
2016-Aug-28 14:15N 51°30' E 000°03'0 0.0
2016-Aug-28 13:33N 51°30' E 000°03'0 0.0
2016-Aug-28 12:33N 51°30' E 000°03'0 0.0
2016-Aug-28 11:33N 51°30' E 000°03'0 0.0
2016-Aug-28 10:27N 51°30' E 000°03'0 0.0
2016-Aug-28 09:27N 51°30' E 000°03'0 0.0
2016-Aug-28 08:27N 51°30' E 000°03'0 0.0
2016-Aug-28 07:33N 51°30' E 000°03'0 0.0
2016-Aug-28 01:21N 51°30' E 000°03'0 0.0
2016-Aug-28 00:27N 51°30' E 000°03'0 0.0
2016-Aug-27 23:33N 51°30' E 000°03'0 0.0
2016-Aug-27 22:33N 51°30' E 000°03'0 0.0
2016-Aug-27 21:33N 51°30' E 000°03'0 0.0
2016-Aug-27 20:27N 51°30' E 000°03'0 0.0
2016-Aug-27 19:33N 51°30' E 000°03'0 0.0
2016-Aug-27 18:27N 51°30' E 000°03'0 0.0
2016-Aug-27 17:27N 51°30' E 000°03'0 0.0
2016-Aug-27 16:27N 51°30' E 000°03'0 0.0
2016-Aug-27 13:09N 51°30' E 000°03'0 0.0
2016-Aug-27 12:32N 51°30' E 000°03'0 0.0
2016-Aug-27 11:32N 51°30' E 000°03'0 0.0
2016-Aug-27 10:32N 51°30' E 000°03'0 0.0
2016-Aug-27 09:32N 51°30' E 000°03'0 0.0
2016-Aug-27 04:05N 51°30' E 000°03'0 0.0
2016-Aug-27 03:32N 51°30' E 000°03'0 0.0
2016-Aug-27 02:29N 51°30' E 000°03'0 0.0
2016-Aug-27 01:29N 51°30' E 000°03'0 0.0
2016-Aug-27 00:32N 51°30' E 000°03'0 0.0
2016-Aug-26 23:29N 51°30' E 000°03'0 0.0
2016-Aug-26 22:32N 51°30' E 000°03'0 0.0
2016-Aug-26 21:32N 51°30' E 000°03'0 0.0
2016-Aug-26 20:20N 51°30' E 000°03'0 0.0
2016-Aug-26 18:32N 51°30' E 000°03'0 0.0
2016-Aug-26 13:11N 51°30' E 000°03'0 0.0
2016-Aug-26 12:32N 51°30' E 000°03'0 0.0
2016-Aug-26 07:31N 51°30' E 000°03'0 0.0
2016-Aug-26 06:31N 51°30' E 000°03'0 0.0
2016-Aug-26 04:31N 51°30' E 000°03'0 0.0
2016-Aug-26 03:13N 51°30' E 000°03'0 0.0
2016-Aug-26 02:19N 51°30' E 000°03'0 0.0
2016-Aug-25 23:31N 51°30' E 000°03'0 0.0
2016-Aug-25 22:31N 51°30' E 000°03'0 0.0
2016-Aug-25 20:16N 51°30' E 000°03'0 0.0
2016-Aug-25 19:28N 51°30' E 000°03'0 0.0
2016-Aug-25 18:31N 51°30' E 000°03'0 0.0
2016-Aug-25 11:26N 51°30' E 000°03'0 0.0
2016-Aug-25 10:32N 51°30' E 000°03'0 0.0
2016-Aug-25 09:33N 51°30' E 000°03'0 0.0
2016-Aug-25 08:33N 51°30' E 000°03'0 0.0
2016-Aug-25 07:33N 51°30' E 000°03'0 0.0
2016-Aug-25 06:33N 51°30' E 000°03'0 0.0
2016-Aug-25 04:33N 51°30' E 000°03'0 0.0
2016-Aug-25 03:33N 51°30' E 000°03'0 0.0
2016-Aug-25 02:33N 51°30' E 000°03'0 0.0
2016-Aug-25 01:33N 51°30' E 000°03'0 0.0
2016-Aug-25 00:33N 51°30' E 000°03'0 0.0
2016-Aug-24 23:33N 51°30' E 000°03'0 0.0
2016-Aug-24 22:33N 51°30' E 000°03'0 0.0
2016-Aug-24 21:33N 51°30' E 000°03'0 0.0
2016-Aug-24 20:33N 51°30' E 000°03'0 0.0
2016-Aug-24 19:33N 51°30' E 000°03'0 0.0
2016-Aug-24 18:33N 51°30' E 000°03'0 0.0
2016-Aug-24 17:33N 51°30' E 000°03'1 0.6
2016-Aug-24 16:33N 51°30' E 000°04'7 7.0
2016-Aug-24 15:34N 51°28' E 000°15'7 7.4
2016-Aug-24 14:33N 51°27' E 000°26'6 6.3
2016-Aug-24 13:33N 51°30' E 000°36'9 8.6
2016-Aug-24 12:33N 51°30' E 000°49'0 0.4
2016-Aug-24 11:33N 51°30' E 000°50'0 0.2
2016-Aug-24 10:34N 51°30' E 000°50'0 0.0
2016-Aug-24 09:33N 51°30' E 000°50'0 0.0
2016-Aug-24 08:33N 51°30' E 000°50'0 0.0
2016-Aug-24 07:33N 51°30' E 000°50'0 0.0
2016-Aug-24 06:33N 51°30' E 000°50'0 0.1
2016-Aug-24 04:30N 51°30' E 000°50'0 0.0
2016-Aug-24 03:34N 51°30' E 000°50'0 0.0
2016-Aug-24 02:33N 51°30' E 000°50'0 0.0
2016-Aug-24 01:34N 51°30' E 000°50'0 0.0
2016-Aug-24 00:31N 51°30' E 000°50'0 0.0
2016-Aug-23 23:33N 51°30' E 000°50'0 0.2
2016-Aug-23 22:33N 51°30' E 000°50'0 0.1
2016-Aug-23 21:34N 51°30' E 000°50'0 0.0
2016-Aug-23 20:33N 51°30' E 000°50'0 0.0
2016-Aug-23 19:33N 51°30' E 000°50'0 0.0
2016-Aug-23 18:34N 51°30' E 000°50'0 0.0
2016-Aug-23 17:34N 51°30' E 000°50'0 0.2
2016-Aug-23 16:33N 51°30' E 000°50'0 0.2
2016-Aug-23 15:33N 51°30' E 000°50'0 0.0
2016-Aug-23 14:29N 51°30' E 000°50'0 0.0
2016-Aug-23 13:33N 51°30' E 000°50'0 0.0
2016-Aug-23 12:33N 51°30' E 000°50'0 0.0
2016-Aug-23 11:30N 51°30' E 000°50'0 0.1
2016-Aug-23 10:33N 51°30' E 000°50'0 0.2
2016-Aug-23 09:34N 51°30' E 000°50'0 0.0
2016-Aug-23 08:33N 51°30' E 000°50'0 0.0
2016-Aug-23 07:32N 51°30' E 000°50'0 0.0
2016-Aug-23 06:34N 51°30' E 000°50'0 0.0
2016-Aug-23 05:33N 51°30' E 000°50'0 0.1
2016-Aug-23 04:29N 51°30' E 000°50'0 0.3
2016-Aug-23 03:33N 51°30' E 000°50'0 0.0
2016-Aug-23 02:28N 51°30' E 000°50'0 0.0
2016-Aug-23 01:33N 51°30' E 000°50'0 0.0
2016-Aug-23 00:31N 51°30' E 000°50'0 0.0
2016-Aug-22 23:31N 51°30' E 000°50'0 0.1
2016-Aug-22 22:33N 51°30' E 000°50'0 0.2
2016-Aug-22 21:33N 51°30' E 000°50'0 0.0
2016-Aug-22 20:34N 51°30' E 000°50'0 0.0
2016-Aug-22 19:34N 51°30' E 000°50'0 0.0
2016-Aug-22 18:33N 51°30' E 000°50'0 0.0
2016-Aug-22 17:33N 51°30' E 000°50'0 0.0
2016-Aug-22 16:33N 51°30' E 000°50'0 0.1
2016-Aug-22 15:33N 51°30' E 000°50'0 0.2
2016-Aug-22 14:34N 51°30' E 000°50'0 0.0
2016-Aug-22 13:32N 51°30' E 000°50'0 0.0
2016-Aug-22 12:32N 51°30' E 000°50'0 0.0
2016-Aug-22 11:33N 51°30' E 000°50'0 0.0
2016-Aug-22 10:29N 51°30' E 000°50'0 0.3
2016-Aug-22 09:34N 51°30' E 000°50'0 0.1
2016-Aug-22 08:33N 51°30' E 000°50'0 0.0
2016-Aug-22 07:33N 51°30' E 000°50'0 0.0
2016-Aug-22 06:33N 51°30' E 000°50'0 0.0
2016-Aug-22 05:33N 51°30' E 000°50'0 0.0
2016-Aug-22 04:33N 51°30' E 000°50'0 0.0
2016-Aug-22 03:34N 51°30' E 000°50'0 0.2
2016-Aug-22 02:33N 51°30' E 000°50'0 0.0
2016-Aug-22 01:31N 51°30' E 000°50'0 0.0
2016-Aug-22 00:28N 51°30' E 000°50'0 0.0
2016-Aug-21 23:31N 51°30' E 000°50'0 0.0
2016-Aug-21 22:33N 51°30' E 000°50'0 0.2
2016-Aug-21 21:33N 51°30' E 000°50'0 0.1
2016-Aug-21 20:33N 51°30' E 000°50'0 0.0
2016-Aug-21 19:34N 51°30' E 000°50'0 0.0
2016-Aug-21 18:33N 51°30' E 000°50'0 0.0
2016-Aug-21 17:33N 51°30' E 000°50'0 0.0
2016-Aug-21 16:33N 51°30' E 000°50'0 0.0
2016-Aug-21 15:33N 51°30' E 000°50'0 0.2
2016-Aug-21 14:33N 51°30' E 000°50'0 0.1
2016-Aug-21 13:33N 51°30' E 000°50'0 0.0
2016-Aug-21 12:32N 51°30' E 000°50'0 0.0
2016-Aug-21 11:31N 51°30' E 000°50'0 0.0
2016-Aug-21 10:33N 51°30' E 000°50'0 0.2
2016-Aug-21 09:34N 51°30' E 000°50'0 0.3
2016-Aug-21 08:33N 51°30' E 000°50'0 0.0
2016-Aug-21 07:33N 51°30' E 000°50'0 0.0
2016-Aug-21 06:33N 51°30' E 000°50'0 0.0
2016-Aug-21 05:33N 51°30' E 000°50'0 0.0
2016-Aug-21 04:33N 51°30' E 000°50'0 0.0
2016-Aug-21 03:33N 51°30' E 000°50'0 0.0
2016-Aug-21 02:34N 51°30' E 000°50'0 0.3
2016-Aug-21 01:31N 51°30' E 000°50'0 0.0
2016-Aug-21 00:18N 51°30' E 000°50'0 0.0
2016-Aug-20 23:30N 51°30' E 000°50'0 0.0
2016-Aug-20 22:24N 51°30' E 000°50'0 0.2
2016-Aug-20 21:33N 51°30' E 000°50'0 0.2
2016-Aug-20 20:33N 51°30' E 000°50'0 0.0
2016-Aug-20 19:33N 51°30' E 000°50'0 0.0
2016-Aug-20 18:33N 51°30' E 000°50'0 0.0
2016-Aug-20 17:33N 51°30' E 000°50'0 0.0
2016-Aug-20 16:33N 51°30' E 000°50'0 0.0
2016-Aug-20 15:33N 51°30' E 000°50'0 0.1
2016-Aug-20 14:33N 51°30' E 000°50'0 0.5
2016-Aug-20 13:33N 51°30' E 000°50'5 5.3
2016-Aug-20 12:33N 51°29' E 000°58'9 9.3
2016-Aug-20 11:33N 51°29' E 001°13'9 9.1
2016-Aug-20 10:33N 51°29' E 001°28'2 2.0
2016-Aug-20 09:33N 51°29' E 001°31'2 1.9
2016-Aug-20 08:32N 51°31' E 001°30'0 0.2
2016-Aug-20 07:32N 51°31' E 001°30'0 0.0
2016-Aug-20 06:32N 51°31' E 001°30'0 0.0
2016-Aug-20 05:31N 51°31' E 001°30'0 0.0
2016-Aug-20 04:31N 51°32' E 001°30'0 0.0
2016-Aug-20 03:31N 51°32' E 001°30'0 0.0
2016-Aug-20 02:31N 51°32' E 001°30'0 0.1
2016-Aug-20 01:31N 51°32' E 001°30'3 2.9
2016-Aug-20 00:33N 51°31' E 001°35'8 8.1
2016-Aug-19 23:33N 51°26' E 001°45'1110.6
2016-Aug-19 22:33N 51°16' E 001°40'9 8.6
2016-Aug-19 21:33N 51°07' E 001°41'8 8.2
2016-Aug-19 20:33N 51°01' E 001°34'8 8.1
2016-Aug-19 19:33N 50°54' E 001°28'52 8.7
2016-Aug-19 13:33N 50°23' E 000°21'1010.1
2016-Aug-19 12:31N 50°20' E 000°06'1010.7
2016-Aug-19 11:33N 50°17' W 000°10'1612.1
2016-Aug-19 10:15N 50°13' W 000°34'8512.5
2016-Aug-19 03:28N 49°52' W 002°41'8 8.7
2016-Aug-19 02:34N 49°50' W 002°53'8 8.4
2016-Aug-19 01:34N 49°47' W 003°05'  
Track history (hours):
 
Tides and Currents Weather Stations Pressure Air Temp Water Temp Dewpoint Dewpoint Depression Visibility Wind Speed Wind Dir Waves Ship Positions

Navios*hios

Last reported at 2016-Aug-29 01:28 UTC. Time now 2016-Aug-29 05:29 UTC.
Position N 51°30' E 000°03'.

Length 120 m; draft 10 m.

Type: Cargo ship. MMSI: 240149000.

Date/timePositionNaut miles runAvg speedWind from/ knotsBaromVisibWave heightAir tempDewpointWater temp
2016-Aug-29 01:28N 51°30' E 000°03'0 0.0
2016-Aug-29 00:28N 51°30' E 000°03'0 0.0
2016-Aug-28 23:28N 51°30' E 000°03'0 0.0
2016-Aug-28 22:28N 51°30' E 000°03'0 0.0
2016-Aug-28 21:16N 51°30' E 000°03'0 0.0
2016-Aug-28 20:28N 51°30' E 000°03'0 0.0
2016-Aug-28 19:04N 51°30' E 000°03'0 0.0
2016-Aug-28 18:28N 51°30' E 000°03'0 0.0
2016-Aug-28 14:15N 51°30' E 000°03'0 0.0
2016-Aug-28 13:33N 51°30' E 000°03'0 0.0
2016-Aug-28 12:33N 51°30' E 000°03'0 0.0
2016-Aug-28 11:33N 51°30' E 000°03'0 0.0
2016-Aug-28 10:27N 51°30' E 000°03'0 0.0
2016-Aug-28 09:27N 51°30' E 000°03'0 0.0
2016-Aug-28 08:27N 51°30' E 000°03'0 0.0
2016-Aug-28 07:33N 51°30' E 000°03'0 0.0
2016-Aug-28 01:21N 51°30' E 000°03'0 0.0
2016-Aug-28 00:27N 51°30' E 000°03'0 0.0
2016-Aug-27 23:33N 51°30' E 000°03'0 0.0
2016-Aug-27 22:33N 51°30' E 000°03'0 0.0
2016-Aug-27 21:33N 51°30' E 000°03'0 0.0
2016-Aug-27 20:27N 51°30' E 000°03'0 0.0
2016-Aug-27 19:33N 51°30' E 000°03'0 0.0
2016-Aug-27 18:27N 51°30' E 000°03'0 0.0
2016-Aug-27 17:27N 51°30' E 000°03'0 0.0
2016-Aug-27 16:27N 51°30' E 000°03'0 0.0
2016-Aug-27 13:09N 51°30' E 000°03'0 0.0
2016-Aug-27 12:32N 51°30' E 000°03'0 0.0
2016-Aug-27 11:32N 51°30' E 000°03'0 0.0
2016-Aug-27 10:32N 51°30' E 000°03'0 0.0
2016-Aug-27 09:32N 51°30' E 000°03'0 0.0
2016-Aug-27 04:05N 51°30' E 000°03'0 0.0
2016-Aug-27 03:32N 51°30' E 000°03'0 0.0
2016-Aug-27 02:29N 51°30' E 000°03'0 0.0
2016-Aug-27 01:29N 51°30' E 000°03'0 0.0
2016-Aug-27 00:32N 51°30' E 000°03'0 0.0
2016-Aug-26 23:29N 51°30' E 000°03'0 0.0
2016-Aug-26 22:32N 51°30' E 000°03'0 0.0
2016-Aug-26 21:32N 51°30' E 000°03'0 0.0
2016-Aug-26 20:20N 51°30' E 000°03'0 0.0
2016-Aug-26 18:32N 51°30' E 000°03'0 0.0
2016-Aug-26 13:11N 51°30' E 000°03'0 0.0
2016-Aug-26 12:32N 51°30' E 000°03'0 0.0
2016-Aug-26 07:31N 51°30' E 000°03'0 0.0
2016-Aug-26 06:31N 51°30' E 000°03'0 0.0
2016-Aug-26 04:31N 51°30' E 000°03'0 0.0
2016-Aug-26 03:13N 51°30' E 000°03'0 0.0
2016-Aug-26 02:19N 51°30' E 000°03'0 0.0
2016-Aug-25 23:31N 51°30' E 000°03'0 0.0
2016-Aug-25 22:31N 51°30' E 000°03'0 0.0
2016-Aug-25 20:16N 51°30' E 000°03'0 0.0
2016-Aug-25 19:28N 51°30' E 000°03'0 0.0
2016-Aug-25 18:31N 51°30' E 000°03'0 0.0
2016-Aug-25 11:26N 51°30' E 000°03'0 0.0
2016-Aug-25 10:32N 51°30' E 000°03'0 0.0
2016-Aug-25 09:33N 51°30' E 000°03'0 0.0
2016-Aug-25 08:33N 51°30' E 000°03'0 0.0
2016-Aug-25 07:33N 51°30' E 000°03'0 0.0
2016-Aug-25 06:33N 51°30' E 000°03'0 0.0
2016-Aug-25 04:33N 51°30' E 000°03'0 0.0
2016-Aug-25 03:33N 51°30' E 000°03'0 0.0
2016-Aug-25 02:33N 51°30' E 000°03'0 0.0
2016-Aug-25 01:33N 51°30' E 000°03'0 0.0
2016-Aug-25 00:33N 51°30' E 000°03'0 0.0
2016-Aug-24 23:33N 51°30' E 000°03'0 0.0
2016-Aug-24 22:33N 51°30' E 000°03'0 0.0
2016-Aug-24 21:33N 51°30' E 000°03'0 0.0
2016-Aug-24 20:33N 51°30' E 000°03'0 0.0
2016-Aug-24 19:33N 51°30' E 000°03'0 0.0
2016-Aug-24 18:33N 51°30' E 000°03'0 0.0
2016-Aug-24 17:33N 51°30' E 000°03'1 0.6
2016-Aug-24 16:33N 51°30' E 000°04'7 7.0
2016-Aug-24 15:34N 51°28' E 000°15'7 7.4
2016-Aug-24 14:33N 51°27' E 000°26'6 6.3
2016-Aug-24 13:33N 51°30' E 000°36'9 8.6
2016-Aug-24 12:33N 51°30' E 000°49'0 0.4
2016-Aug-24 11:33N 51°30' E 000°50'0 0.2
2016-Aug-24 10:34N 51°30' E 000°50'0 0.0
2016-Aug-24 09:33N 51°30' E 000°50'0 0.0
2016-Aug-24 08:33N 51°30' E 000°50'0 0.0
2016-Aug-24 07:33N 51°30' E 000°50'0 0.0
2016-Aug-24 06:33N 51°30' E 000°50'0 0.1
2016-Aug-24 04:30N 51°30' E 000°50'0 0.0
2016-Aug-24 03:34N 51°30' E 000°50'0 0.0
2016-Aug-24 02:33N 51°30' E 000°50'0 0.0
2016-Aug-24 01:34N 51°30' E 000°50'0 0.0
2016-Aug-24 00:31N 51°30' E 000°50'0 0.0
2016-Aug-23 23:33N 51°30' E 000°50'0 0.2
2016-Aug-23 22:33N 51°30' E 000°50'0 0.1
2016-Aug-23 21:34N 51°30' E 000°50'0 0.0
2016-Aug-23 20:33N 51°30' E 000°50'0 0.0
2016-Aug-23 19:33N 51°30' E 000°50'0 0.0
2016-Aug-23 18:34N 51°30' E 000°50'0 0.0
2016-Aug-23 17:34N 51°30' E 000°50'0 0.2
2016-Aug-23 16:33N 51°30' E 000°50'0 0.2
2016-Aug-23 15:33N 51°30' E 000°50'0 0.0
2016-Aug-23 14:29N 51°30' E 000°50'0 0.0
2016-Aug-23 13:33N 51°30' E 000°50'0 0.0
2016-Aug-23 12:33N 51°30' E 000°50'0 0.0
2016-Aug-23 11:30N 51°30' E 000°50'0 0.1
2016-Aug-23 10:33N 51°30' E 000°50'0 0.2
2016-Aug-23 09:34N 51°30' E 000°50'0 0.0
2016-Aug-23 08:33N 51°30' E 000°50'0 0.0
2016-Aug-23 07:32N 51°30' E 000°50'0 0.0
2016-Aug-23 06:34N 51°30' E 000°50'0 0.0
2016-Aug-23 05:33N 51°30' E 000°50'0 0.1
2016-Aug-23 04:29N 51°30' E 000°50'0 0.3
2016-Aug-23 03:33N 51°30' E 000°50'0 0.0
2016-Aug-23 02:28N 51°30' E 000°50'0 0.0
2016-Aug-23 01:33N 51°30' E 000°50'0 0.0
2016-Aug-23 00:31N 51°30' E 000°50'0 0.0
2016-Aug-22 23:31N 51°30' E 000°50'0 0.1
2016-Aug-22 22:33N 51°30' E 000°50'0 0.2
2016-Aug-22 21:33N 51°30' E 000°50'0 0.0
2016-Aug-22 20:34N 51°30' E 000°50'0 0.0
2016-Aug-22 19:34N 51°30' E 000°50'0 0.0
2016-Aug-22 18:33N 51°30' E 000°50'0 0.0
2016-Aug-22 17:33N 51°30' E 000°50'0 0.0
2016-Aug-22 16:33N 51°30' E 000°50'0 0.1
2016-Aug-22 15:33N 51°30' E 000°50'0 0.2
2016-Aug-22 14:34N 51°30' E 000°50'0 0.0
2016-Aug-22 13:32N 51°30' E 000°50'0 0.0
2016-Aug-22 12:32N 51°30' E 000°50'0 0.0
2016-Aug-22 11:33N 51°30' E 000°50'0 0.0
2016-Aug-22 10:29N 51°30' E 000°50'0 0.3
2016-Aug-22 09:34N 51°30' E 000°50'0 0.1
2016-Aug-22 08:33N 51°30' E 000°50'0 0.0
2016-Aug-22 07:33N 51°30' E 000°50'0 0.0
2016-Aug-22 06:33N 51°30' E 000°50'0 0.0
2016-Aug-22 05:33N 51°30' E 000°50'0 0.0
2016-Aug-22 04:33N 51°30' E 000°50'0 0.0
2016-Aug-22 03:34N 51°30' E 000°50'0 0.2
2016-Aug-22 02:33N 51°30' E 000°50'0 0.0
2016-Aug-22 01:31N 51°30' E 000°50'0 0.0
2016-Aug-22 00:28N 51°30' E 000°50'0 0.0
2016-Aug-21 23:31N 51°30' E 000°50'0 0.0
2016-Aug-21 22:33N 51°30' E 000°50'0 0.2
2016-Aug-21 21:33N 51°30' E 000°50'0 0.1
2016-Aug-21 20:33N 51°30' E 000°50'0 0.0
2016-Aug-21 19:34N 51°30' E 000°50'0 0.0
2016-Aug-21 18:33N 51°30' E 000°50'0 0.0
2016-Aug-21 17:33N 51°30' E 000°50'0 0.0
2016-Aug-21 16:33N 51°30' E 000°50'0 0.0
2016-Aug-21 15:33N 51°30' E 000°50'0 0.2
2016-Aug-21 14:33N 51°30' E 000°50'0 0.1
2016-Aug-21 13:33N 51°30' E 000°50'0 0.0
2016-Aug-21 12:32N 51°30' E 000°50'0 0.0
2016-Aug-21 11:31N 51°30' E 000°50'0 0.0
2016-Aug-21 10:33N 51°30' E 000°50'0 0.2
2016-Aug-21 09:34N 51°30' E 000°50'0 0.3
2016-Aug-21 08:33N 51°30' E 000°50'0 0.0
2016-Aug-21 07:33N 51°30' E 000°50'0 0.0
2016-Aug-21 06:33N 51°30' E 000°50'0 0.0
2016-Aug-21 05:33N 51°30' E 000°50'0 0.0
2016-Aug-21 04:33N 51°30' E 000°50'0 0.0
2016-Aug-21 03:33N 51°30' E 000°50'0 0.0
2016-Aug-21 02:34N 51°30' E 000°50'0 0.3
2016-Aug-21 01:31N 51°30' E 000°50'0 0.0
2016-Aug-21 00:18N 51°30' E 000°50'0 0.0
2016-Aug-20 23:30N 51°30' E 000°50'0 0.0
2016-Aug-20 22:24N 51°30' E 000°50'0 0.2
2016-Aug-20 21:33N 51°30' E 000°50'0 0.2
2016-Aug-20 20:33N 51°30' E 000°50'0 0.0
2016-Aug-20 19:33N 51°30' E 000°50'0 0.0
2016-Aug-20 18:33N 51°30' E 000°50'0 0.0
2016-Aug-20 17:33N 51°30' E 000°50'0 0.0
2016-Aug-20 16:33N 51°30' E 000°50'0 0.0
2016-Aug-20 15:33N 51°30' E 000°50'0 0.1
2016-Aug-20 14:33N 51°30' E 000°50'0 0.5
2016-Aug-20 13:33N 51°30' E 000°50'5 5.3
2016-Aug-20 12:33N 51°29' E 000°58'9 9.3
2016-Aug-20 11:33N 51°29' E 001°13'9 9.1
2016-Aug-20 10:33N 51°29' E 001°28'2 2.0
2016-Aug-20 09:33N 51°29' E 001°31'2 1.9
2016-Aug-20 08:32N 51°31' E 001°30'0 0.2
2016-Aug-20 07:32N 51°31' E 001°30'0 0.0
2016-Aug-20 06:32N 51°31' E 001°30'0 0.0
2016-Aug-20 05:31N 51°31' E 001°30'0 0.0
2016-Aug-20 04:31N 51°32' E 001°30'0 0.0
2016-Aug-20 03:31N 51°32' E 001°30'0 0.0
2016-Aug-20 02:31N 51°32' E 001°30'0 0.1
2016-Aug-20 01:31N 51°32' E 001°30'3 2.9
2016-Aug-20 00:33N 51°31' E 001°35'8 8.1
2016-Aug-19 23:33N 51°26' E 001°45'1110.6
2016-Aug-19 22:33N 51°16' E 001°40'9 8.6
2016-Aug-19 21:33N 51°07' E 001°41'8 8.2
2016-Aug-19 20:33N 51°01' E 001°34'8 8.1
2016-Aug-19 19:33N 50°54' E 001°28'52 8.7
2016-Aug-19 13:33N 50°23' E 000°21'1010.1
2016-Aug-19 12:31N 50°20' E 000°06'1010.7
2016-Aug-19 11:33N 50°17' W 000°10'1612.1
2016-Aug-19 10:15N 50°13' W 000°34'8512.5
2016-Aug-19 03:28N 49°52' W 002°41'8 8.7
2016-Aug-19 02:34N 49°50' W 002°53'8 8.4
2016-Aug-19 01:34N 49°47' W 003°05'  

Dump ship's entire track history